createdAt,value
2017-11-17T00:00:14.140Z,13.48
2017-11-17T00:00:54.552Z,13.31
2017-11-17T00:01:35.028Z,13.46
2017-11-17T00:02:15.454Z,13.5
2017-11-17T00:02:55.989Z,13.41
2017-11-17T00:03:36.379Z,13.47
2017-11-17T00:04:16.749Z,13.48
2017-11-17T00:04:57.163Z,13.44
2017-11-17T00:05:37.497Z,13.48
2017-11-17T00:06:17.993Z,13.51
2017-11-17T00:06:58.357Z,13.55
2017-11-17T00:07:38.799Z,13.44
2017-11-17T00:08:19.122Z,13.59
2017-11-17T00:08:59.568Z,13.55
2017-11-17T00:09:40.010Z,13.51
2017-11-17T00:10:20.370Z,13.55
2017-11-17T00:11:00.809Z,13.61
2017-11-17T00:11:41.161Z,13.54
2017-11-17T00:12:21.561Z,13.57
2017-11-17T00:13:02.011Z,13.68
2017-11-17T00:13:42.369Z,13.55
2017-11-17T00:14:22.829Z,13.61
2017-11-17T00:15:03.235Z,13.53
2017-11-17T00:15:43.567Z,13.68
2017-11-17T00:16:23.993Z,13.66
2017-11-17T00:17:04.446Z,13.72
2017-11-17T00:17:44.786Z,13.66
2017-11-17T00:18:25.228Z,13.69
2017-11-17T00:19:05.630Z,13.75
2017-11-17T00:19:46.058Z,13.63
2017-11-17T00:20:26.507Z,13.69
2017-11-17T00:21:06.938Z,13.75
2017-11-17T00:21:47.297Z,13.69
2017-11-17T00:22:27.727Z,13.71
2017-11-17T00:23:08.074Z,13.71
2017-11-17T00:23:48.519Z,13.62
2017-11-17T00:24:28.916Z,13.63
2017-11-17T00:25:09.408Z,13.63
2017-11-17T00:25:49.790Z,13.72
2017-11-17T00:26:30.188Z,13.66
2017-11-17T00:27:10.658Z,13.69
2017-11-17T00:27:50.935Z,13.71
2017-11-17T00:28:31.444Z,13.73
2017-11-17T00:29:11.816Z,13.69
2017-11-17T00:29:52.163Z,13.71
2017-11-17T00:30:32.515Z,13.65
2017-11-17T00:31:13.054Z,13.62
2017-11-17T00:31:53.436Z,13.75
2017-11-17T00:32:33.877Z,13.83
2017-11-17T00:33:14.282Z,13.84
2017-11-17T00:33:54.774Z,13.76
2017-11-17T00:34:35.192Z,13.79
2017-11-17T00:35:15.615Z,13.73
2017-11-17T00:35:55.988Z,13.71
2017-11-17T00:36:36.510Z,13.71
2017-11-17T00:37:16.854Z,13.57
2017-11-17T00:37:57.213Z,13.63
2017-11-17T00:38:37.649Z,13.55
2017-11-17T00:39:18.024Z,13.61
2017-11-17T00:39:58.454Z,13.47
2017-11-17T00:40:38.920Z,13.48
2017-11-17T00:41:19.353Z,13.47
2017-11-17T00:41:59.795Z,13.39
2017-11-17T00:42:40.232Z,13.46
2017-11-17T00:43:20.648Z,13.41
2017-11-17T00:44:01.070Z,13.46
2017-11-17T00:44:41.585Z,13.44
2017-11-17T00:45:22.014Z,13.46
2017-11-17T00:46:02.426Z,13.44
2017-11-17T00:46:42.878Z,13.43
2017-11-17T00:47:23.308Z,13.47
2017-11-17T00:48:03.759Z,13.41
2017-11-17T00:48:44.184Z,13.46
2017-11-17T00:49:24.541Z,13.47
2017-11-17T00:50:04.976Z,13.41
2017-11-17T00:50:45.362Z,13.35
2017-11-17T00:51:25.806Z,13.38
2017-11-17T00:52:06.318Z,13.25
2017-11-17T00:52:46.682Z,13.28
2017-11-17T00:53:27.109Z,13.22
2017-11-17T00:54:07.511Z,13.21
2017-11-17T00:54:47.905Z,13.24
2017-11-17T00:55:28.273Z,13.17
2017-11-17T00:56:08.754Z,13.17
2017-11-17T00:56:49.092Z,13.22
2017-11-17T00:57:29.623Z,13.19
2017-11-17T00:58:10.033Z,13.25
2017-11-17T00:58:50.512Z,13.27
2017-11-17T00:59:30.935Z,13.22
2017-11-17T01:00:11.368Z,13.25
2017-11-17T01:00:51.742Z,13.32
2017-11-17T01:01:32.139Z,13.28
2017-11-17T01:02:12.632Z,13.28
2017-11-17T01:02:53.020Z,13.35
2017-11-17T01:03:33.456Z,13.35
2017-11-17T01:04:13.850Z,13.32
2017-11-17T01:04:54.251Z,13.29
2017-11-17T01:05:34.847Z,13.36
2017-11-17T01:06:15.201Z,13.29
2017-11-17T01:06:55.671Z,13.32
2017-11-17T01:07:35.997Z,13.29
2017-11-17T01:08:16.449Z,13.46
2017-11-17T01:08:56.835Z,13.44
2017-11-17T01:09:37.208Z,13.54
2017-11-17T01:10:17.701Z,13.46
2017-11-17T01:10:58.142Z,13.47
2017-11-17T01:11:38.552Z,13.48
2017-11-17T01:12:18.957Z,13.43
2017-11-17T01:12:59.287Z,13.47
2017-11-17T01:13:39.688Z,13.35
2017-11-17T01:14:20.112Z,13.29
2017-11-17T01:15:00.484Z,13.38
2017-11-17T01:15:40.963Z,13.32
2017-11-17T01:16:21.386Z,13.22
2017-11-17T01:17:01.791Z,13.27
2017-11-17T01:17:42.329Z,13.31
2017-11-17T01:18:22.659Z,13.31
2017-11-17T01:19:03.037Z,13.29
2017-11-17T01:19:43.476Z,13.36
2017-11-17T01:20:23.817Z,13.38
2017-11-17T01:21:04.244Z,13.31
2017-11-17T01:21:44.657Z,13.32
2017-11-17T01:22:25.080Z,13.32
2017-11-17T01:23:05.500Z,13.41
2017-11-17T01:23:45.862Z,13.27
2017-11-17T01:24:26.293Z,13.29
2017-11-17T01:25:06.694Z,13.24
2017-11-17T01:25:47.048Z,13.28
2017-11-17T01:26:27.449Z,13.21
2017-11-17T01:27:07.928Z,13.27
2017-11-17T01:27:48.286Z,13.19
2017-11-17T01:28:29.039Z,13.21
2017-11-17T01:29:09.275Z,13.25
2017-11-17T01:29:49.650Z,13.28
2017-11-17T01:30:30.068Z,13.24
2017-11-17T01:31:10.474Z,13.24
2017-11-17T01:31:50.857Z,13.25
2017-11-17T01:32:31.260Z,13.22
2017-11-17T01:33:11.644Z,13.21
2017-11-17T01:33:52.128Z,13.25
2017-11-17T01:34:32.511Z,13.24
2017-11-17T01:35:12.883Z,13.35
2017-11-17T01:35:53.226Z,13.22
2017-11-17T01:36:33.711Z,13.19
2017-11-17T01:37:14.102Z,13.31
2017-11-17T01:37:54.496Z,13.27
2017-11-17T01:38:34.890Z,13.28
2017-11-17T01:39:15.291Z,13.28
2017-11-17T01:39:55.729Z,13.36
2017-11-17T01:40:36.165Z,13.29
2017-11-17T01:41:16.653Z,13.28
2017-11-17T01:41:56.996Z,13.43
2017-11-17T01:42:37.358Z,13.36
2017-11-17T01:43:17.766Z,13.48
2017-11-17T01:43:58.159Z,13.47
2017-11-17T01:44:38.663Z,13.43
2017-11-17T01:45:19.077Z,13.35
2017-11-17T01:45:59.419Z,13.46
2017-11-17T01:46:39.869Z,13.31
2017-11-17T01:47:20.234Z,13.29
2017-11-17T01:48:00.645Z,13.25
2017-11-17T01:48:41.040Z,13.25
2017-11-17T01:49:21.412Z,13.21
2017-11-17T01:50:01.812Z,13.17
2017-11-17T01:50:42.181Z,13.28
2017-11-17T01:51:22.603Z,13.32
2017-11-17T01:52:02.977Z,13.41
2017-11-17T01:52:43.387Z,13.32
2017-11-17T01:53:23.834Z,13.39
2017-11-17T01:54:04.219Z,13.35
2017-11-17T01:54:44.628Z,13.32
2017-11-17T01:55:25.016Z,13.32
2017-11-17T01:56:05.514Z,13.29
2017-11-17T01:56:45.821Z,13.47
2017-11-17T01:57:26.282Z,13.36
2017-11-17T01:58:06.680Z,13.31
2017-11-17T01:58:46.991Z,13.36
2017-11-17T01:59:27.385Z,13.39
2017-11-17T02:00:07.813Z,13.31
2017-11-17T02:00:48.212Z,13.28
2017-11-17T02:01:28.722Z,13.35
2017-11-17T02:02:09.121Z,13.36
2017-11-17T02:02:49.453Z,13.38
2017-11-17T02:03:29.857Z,13.22
2017-11-17T02:04:10.316Z,13.32
2017-11-17T02:04:50.726Z,13.38
2017-11-17T02:06:43.505Z,13.25
2017-11-17T02:07:23.444Z,13.22
2017-11-17T02:08:03.813Z,13.14
2017-11-17T02:08:44.285Z,13.21
2017-11-17T02:09:24.663Z,13.14
2017-11-17T02:10:05.081Z,13.25
2017-11-17T02:10:45.470Z,13.21
2017-11-17T02:11:25.852Z,13.09
2017-11-17T02:12:06.289Z,13.1
2017-11-17T02:12:46.606Z,13.07
2017-11-17T02:13:26.991Z,13.09
2017-11-17T02:14:07.410Z,13.1
2017-11-17T02:14:47.827Z,13.13
2017-11-17T02:15:28.259Z,13.16
2017-11-17T02:16:08.682Z,13.06
2017-11-17T02:16:49.089Z,13.1
2017-11-17T02:17:29.477Z,13.03
2017-11-17T02:18:09.929Z,13.09
2017-11-17T02:18:50.365Z,12.92
2017-11-17T02:19:30.864Z,12.96
2017-11-17T02:20:11.227Z,12.98
2017-11-17T02:20:51.624Z,13.07
2017-11-17T02:21:32.041Z,13.06
2017-11-17T02:22:12.437Z,13.07
2017-11-17T02:22:52.838Z,13.16
2017-11-17T02:23:33.251Z,13.06
2017-11-17T02:24:13.653Z,13.07
2017-11-17T02:24:54.112Z,13.04
2017-11-17T02:25:34.519Z,13.12
2017-11-17T02:26:14.893Z,13.19
2017-11-17T02:26:55.337Z,13.22
2017-11-17T02:27:35.743Z,13.25
2017-11-17T02:28:16.177Z,13.28
2017-11-17T02:28:56.611Z,13.25
2017-11-17T02:29:37.012Z,13.38
2017-11-17T02:30:17.360Z,13.41
2017-11-17T02:30:57.781Z,13.46
2017-11-17T02:31:38.204Z,13.44
2017-11-17T02:32:18.564Z,13.47
2017-11-17T02:32:59.019Z,13.47
2017-11-17T02:33:39.424Z,13.47
2017-11-17T02:34:19.810Z,13.44
2017-11-17T02:35:00.260Z,13.44
2017-11-17T02:35:40.660Z,13.44
2017-11-17T02:36:21.093Z,13.44
2017-11-17T02:37:01.461Z,13.43
2017-11-17T02:37:41.875Z,13.44
2017-11-17T02:38:22.329Z,13.48
2017-11-17T02:39:02.728Z,13.5
2017-11-17T02:39:43.096Z,13.47
2017-11-17T02:40:23.473Z,13.59
2017-11-17T02:41:03.837Z,13.54
2017-11-17T02:41:44.286Z,13.46
2017-11-17T02:42:24.620Z,13.62
2017-11-17T02:43:05.061Z,13.53
2017-11-17T02:43:45.472Z,13.68
2017-11-17T02:44:25.862Z,13.61
2017-11-17T02:45:06.275Z,13.63
2017-11-17T02:45:46.671Z,13.71
2017-11-17T02:46:27.119Z,13.62
2017-11-17T02:47:07.525Z,13.62
2017-11-17T02:47:47.897Z,13.66
2017-11-17T02:48:28.317Z,13.62
2017-11-17T02:49:08.738Z,13.72
2017-11-17T02:49:49.096Z,13.79
2017-11-17T02:50:29.499Z,13.84
2017-11-17T02:51:09.933Z,13.83
2017-11-17T02:51:50.526Z,13.79
2017-11-17T02:52:30.885Z,13.79
2017-11-17T02:53:11.251Z,13.65
2017-11-17T02:53:51.623Z,13.73
2017-11-17T02:54:32.092Z,13.71
2017-11-17T02:55:12.420Z,13.68
2017-11-17T02:55:52.862Z,13.59
2017-11-17T02:56:33.267Z,13.62
2017-11-17T02:57:13.631Z,13.63
2017-11-17T02:57:54.009Z,13.61
2017-11-17T02:58:34.442Z,13.65
2017-11-17T02:59:14.845Z,13.66
2017-11-17T02:59:55.334Z,13.65
2017-11-17T03:00:35.657Z,13.71
2017-11-17T03:01:16.147Z,13.72
2017-11-17T03:01:56.445Z,13.66
2017-11-17T03:02:36.854Z,13.76
2017-11-17T03:03:17.288Z,13.71
2017-11-17T03:03:57.771Z,13.76
2017-11-17T03:04:38.167Z,13.76
2017-11-17T03:05:18.545Z,13.68
2017-11-17T03:05:58.950Z,13.71
2017-11-17T03:06:39.376Z,13.76
2017-11-17T03:07:19.781Z,13.8
2017-11-17T03:08:00.229Z,13.69
2017-11-17T03:08:40.610Z,13.75
2017-11-17T03:09:21.030Z,13.84
2017-11-17T03:10:01.454Z,13.86
2017-11-17T03:10:41.924Z,13.9
2017-11-17T03:11:22.277Z,13.75
2017-11-17T03:12:02.685Z,13.8
2017-11-17T03:12:43.065Z,13.8
2017-11-17T03:13:23.487Z,13.86
2017-11-17T03:14:03.915Z,13.88
2017-11-17T03:14:44.320Z,13.81
2017-11-17T03:15:24.777Z,13.83
2017-11-17T03:16:05.104Z,13.68
2017-11-17T03:16:45.531Z,13.66
2017-11-17T03:17:25.944Z,13.72
2017-11-17T03:18:06.401Z,13.76
2017-11-17T03:18:46.840Z,13.75
2017-11-17T03:19:27.297Z,13.81
2017-11-17T03:20:07.693Z,13.81
2017-11-17T03:20:48.111Z,13.72
2017-11-17T03:21:28.502Z,13.83
2017-11-17T03:22:08.921Z,13.84
2017-11-17T03:22:49.341Z,13.88
2017-11-17T03:23:29.766Z,13.79
2017-11-17T03:24:10.136Z,13.9
2017-11-17T03:24:50.580Z,13.86
2017-11-17T03:25:30.976Z,13.84
2017-11-17T03:26:11.382Z,13.84
2017-11-17T03:26:51.791Z,13.76
2017-11-17T03:27:32.256Z,13.81
2017-11-17T03:28:12.628Z,13.81
2017-11-17T03:28:53.124Z,13.84
2017-11-17T03:29:33.500Z,13.76
2017-11-17T03:30:13.901Z,13.75
2017-11-17T03:30:54.289Z,13.66
2017-11-17T03:31:34.845Z,13.65
2017-11-17T03:32:15.137Z,13.63
2017-11-17T03:32:55.561Z,13.61
2017-11-17T03:33:36.084Z,13.55
2017-11-17T03:34:16.756Z,13.61
2017-11-17T03:34:57.609Z,13.59
2017-11-17T03:35:37.582Z,13.59
2017-11-17T03:36:17.960Z,13.59
2017-11-17T03:36:58.495Z,13.59
2017-11-17T03:37:38.826Z,13.57
2017-11-17T03:38:19.262Z,13.62
2017-11-17T03:38:59.673Z,13.59
2017-11-17T03:39:40.071Z,13.48
2017-11-17T03:40:20.572Z,13.51
2017-11-17T03:41:01.047Z,13.48
2017-11-17T03:41:41.573Z,13.48
2017-11-17T03:42:21.995Z,13.35
2017-11-17T03:43:02.338Z,13.35
2017-11-17T03:43:42.747Z,13.38
2017-11-17T03:44:23.338Z,13.38
2017-11-17T03:45:03.808Z,13.24
2017-11-17T03:45:44.181Z,13.25
2017-11-17T03:46:24.745Z,13.24
2017-11-17T03:47:05.060Z,13.28
2017-11-17T03:47:45.480Z,13.25
2017-11-17T03:48:25.933Z,13.27
2017-11-17T03:49:06.292Z,13.25
2017-11-17T03:49:46.921Z,13.24
2017-11-17T03:50:27.267Z,13.25
2017-11-17T03:51:07.693Z,13.22
2017-11-17T03:51:48.183Z,13.21
2017-11-17T03:52:28.631Z,13.27
2017-11-17T03:53:09.089Z,13.27
2017-11-17T03:53:49.439Z,13.22
2017-11-17T03:54:29.905Z,13.22
2017-11-17T03:55:10.351Z,13.31
2017-11-17T03:55:50.760Z,13.21
2017-11-17T03:56:31.147Z,13.25
2017-11-17T03:57:11.576Z,13.28
2017-11-17T03:57:52.034Z,13.22
2017-11-17T03:58:32.467Z,13.22
2017-11-17T03:59:12.943Z,13.27
2017-11-17T03:59:53.303Z,13.27
2017-11-17T04:00:33.846Z,13.21
2017-11-17T04:01:14.280Z,13.27
2017-11-17T04:01:54.921Z,13.29
2017-11-17T04:02:35.244Z,13.21
2017-11-17T04:03:15.748Z,13.21
2017-11-17T04:52:55.405Z,11.75
2017-11-17T04:53:37.490Z,11.81
2017-11-17T04:54:17.893Z,11.84
2017-11-17T04:54:58.279Z,11.81
2017-11-17T04:55:38.705Z,11.85
2017-11-17T04:56:19.081Z,11.79
2017-11-17T04:56:59.678Z,11.88
2017-11-17T04:57:40.071Z,11.81
2017-11-17T04:58:20.414Z,11.97
2017-11-17T04:59:00.830Z,12
2017-11-17T04:59:41.447Z,12
2017-11-17T05:00:21.882Z,11.97
2017-11-17T05:01:02.194Z,12.05
2017-11-17T05:01:42.732Z,12.12
2017-11-17T05:02:23.686Z,12.04
2017-11-17T05:03:04.582Z,12.15
2017-11-17T05:03:45.380Z,12.22
2017-11-17T05:04:25.781Z,12.13
2017-11-17T05:05:06.662Z,12.11
2017-11-17T05:05:47.344Z,12.13
2017-11-17T05:06:28.012Z,12.15
2017-11-17T05:07:08.367Z,12.12
2017-11-17T05:07:48.937Z,12.16
2017-11-17T05:08:29.399Z,12.15
2017-11-17T05:09:09.928Z,12.15
2017-11-17T05:09:51.224Z,12.18
2017-11-17T05:10:31.567Z,12.13
2017-11-17T05:11:12.603Z,12.22
2017-11-17T05:11:53.874Z,12.21
2017-11-17T05:12:33.367Z,12.16
2017-11-17T05:13:13.977Z,12.22
2017-11-17T05:13:55.181Z,12.12
2017-11-17T05:14:35.781Z,12.3
2017-11-17T05:15:16.103Z,12.33
2017-11-17T05:15:56.542Z,12.3
2017-11-17T05:16:37.069Z,12.38
2017-11-17T05:17:18.241Z,12.37
2017-11-17T05:17:58.551Z,12.37
2017-11-17T05:18:38.955Z,12.33
2017-11-17T05:19:19.523Z,12.33
2017-11-17T05:20:00.063Z,12.37
2017-11-17T05:20:42.376Z,12.38
2017-11-17T05:21:22.748Z,12.34
2017-11-17T05:22:03.142Z,12.31
2017-11-17T05:22:43.572Z,12.3
2017-11-17T05:23:23.934Z,12.33
2017-11-17T05:24:04.381Z,12.37
2017-11-17T05:24:44.804Z,12.38
2017-11-17T05:25:25.232Z,12.37
2017-11-17T05:26:05.679Z,12.37
2017-11-17T05:26:46.181Z,12.38
2017-11-17T05:27:26.807Z,12.38
2017-11-17T05:28:07.190Z,12.37
2017-11-17T05:28:47.767Z,12.37
2017-11-17T05:29:28.059Z,12.4
2017-11-17T05:30:08.657Z,12.43
2017-11-17T05:30:49.301Z,12.41
2017-11-17T05:31:29.759Z,12.41
2017-11-17T05:32:10.686Z,12.31
2017-11-17T05:32:51.222Z,12.33
2017-11-17T05:33:31.727Z,12.33
2017-11-17T05:34:12.360Z,12.29
2017-11-17T05:34:52.686Z,12.34
2017-11-17T05:35:33.169Z,12.4
2017-11-17T05:36:13.739Z,12.36
2017-11-17T05:36:54.829Z,12.37
2017-11-17T05:37:35.396Z,12.34
2017-11-17T05:38:15.931Z,12.36
2017-11-17T05:38:56.350Z,12.36
2017-11-17T05:39:36.945Z,12.33
2017-11-17T05:40:17.381Z,12.31
2017-11-17T05:40:57.843Z,12.3
2017-11-17T05:41:38.524Z,12.3
2017-11-17T05:42:18.830Z,12.33
2017-11-17T05:42:59.244Z,12.34
2017-11-17T05:43:39.575Z,12.37
2017-11-17T05:44:20.219Z,12.34
2017-11-17T05:45:01.513Z,12.4
2017-11-17T05:45:42.338Z,12.46
2017-11-17T05:46:22.671Z,12.46
2017-11-17T05:47:03.065Z,12.34
2017-11-17T05:47:43.587Z,12.37
2017-11-17T05:48:24.224Z,12.31
2017-11-17T05:49:04.519Z,12.4
2017-11-17T05:49:45.223Z,12.4
2017-11-17T05:50:25.503Z,12.38
2017-11-17T05:51:06.117Z,12.38
2017-11-17T05:51:46.544Z,12.43
2017-11-17T05:52:27.450Z,12.46
2017-11-17T05:53:08.179Z,12.36
2017-11-17T05:53:50.622Z,12.41
2017-11-17T05:54:31.013Z,12.34
2017-11-17T05:55:12.131Z,12.34
2017-11-17T05:55:53.286Z,12.36
2017-11-17T05:56:33.261Z,12.34
2017-11-17T05:57:13.737Z,12.33
2017-11-17T05:57:54.143Z,12.26
2017-11-17T05:58:34.859Z,12.41
2017-11-17T05:59:15.281Z,12.36
2017-11-17T05:59:55.736Z,12.43
2017-11-17T06:00:36.421Z,12.37
2017-11-17T06:02:53.161Z,12.36
2017-11-17T06:03:36.265Z,12.36
2017-11-17T06:04:16.838Z,12.4
2017-11-17T06:04:57.303Z,12.43
2017-11-17T06:05:37.701Z,12.44
2017-11-17T06:06:18.112Z,12.48
2017-11-17T06:06:58.628Z,12.44
2017-11-17T06:07:39.076Z,12.37
2017-11-17T06:08:19.524Z,12.43
2017-11-17T06:09:03.339Z,12.46
2017-11-17T06:09:47.948Z,12.44
2017-11-17T06:10:29.895Z,12.4
2017-11-17T06:11:21.770Z,12.41
2017-11-17T06:12:29.605Z,12.49
2017-11-17T06:15:06.747Z,12.55
2017-11-17T06:15:46.659Z,12.58
2017-11-17T06:16:27.113Z,12.54
2017-11-17T06:17:07.560Z,12.58
2017-11-17T06:17:47.938Z,12.4
2017-11-17T06:18:28.360Z,12.52
2017-11-17T06:19:08.918Z,12.43
2017-11-17T06:19:49.305Z,12.37
2017-11-17T06:20:29.722Z,12.4
2017-11-17T06:21:10.140Z,12.4
2017-11-17T06:21:50.630Z,12.33
2017-11-17T06:22:31.166Z,12.33
2017-11-17T06:23:11.457Z,12.34
2017-11-17T06:23:51.976Z,12.34
2017-11-17T06:24:32.362Z,12.34
2017-11-17T06:25:12.922Z,12.34
2017-11-17T06:25:53.627Z,12.34
2017-11-17T06:26:33.971Z,12.34
2017-11-17T06:27:14.516Z,12.36
2017-11-17T06:27:54.991Z,12.34
2017-11-17T06:28:35.396Z,12.19
2017-11-17T06:29:15.806Z,12.3
2017-11-17T06:29:56.243Z,12.34
2017-11-17T06:30:36.695Z,12.22
2017-11-17T06:31:17.153Z,12.29
2017-11-17T06:31:57.562Z,12.36
2017-11-17T06:32:38.055Z,12.37
2017-11-17T06:33:18.527Z,12.31
2017-11-17T06:33:58.937Z,12.23
2017-11-17T06:34:39.448Z,12.22
2017-11-17T06:35:20.012Z,12.21
2017-11-17T06:36:00.443Z,12.3
2017-11-17T06:36:41.117Z,12.13
2017-11-17T06:37:22.330Z,12.11
2017-11-17T06:38:02.593Z,12.13
2017-11-17T06:38:43.099Z,12.07
2017-11-17T06:39:23.919Z,12.11
2017-11-17T06:40:04.315Z,12.12
2017-11-17T06:40:44.964Z,12.12
2017-11-17T06:41:25.684Z,12.04
2017-11-17T06:42:06.019Z,11.94
2017-11-17T06:42:46.517Z,12
2017-11-17T06:43:28.559Z,11.9
2017-11-17T06:44:07.836Z,11.9
2017-11-17T06:44:49.273Z,11.84
2017-11-17T06:45:30.490Z,11.98
2017-11-17T06:46:11.643Z,12
2017-11-17T06:48:50.579Z,12.03
2017-11-17T06:49:43.032Z,12.04
2017-11-17T06:51:53.679Z,11.97
2017-11-17T06:53:47.315Z,12.12
2017-11-17T06:54:28.193Z,12.13
2017-11-17T06:55:09.650Z,12.16
2017-11-17T06:55:50.118Z,12.13
2017-11-17T06:56:31.371Z,12.12
2017-11-17T06:57:12.510Z,12.15
2017-11-17T06:57:53.557Z,12.25
2017-11-17T06:58:34.249Z,12.29
2017-11-17T06:59:14.677Z,12.31
2017-11-17T06:59:55.964Z,12.33
2017-11-17T07:00:36.542Z,12.33
2017-11-17T07:01:17.846Z,12.52
2017-11-17T07:01:59.977Z,12.49
2017-11-17T07:02:40.565Z,12.44
2017-11-17T07:04:59.626Z,12.49
2017-11-17T07:06:39.306Z,12.52
2017-11-17T07:07:19.786Z,12.48
2017-11-17T07:11:39.495Z,12.44
2017-11-17T07:12:33.581Z,12.38
2017-11-17T07:13:33.103Z,12.33
2017-11-17T07:14:22.939Z,12.38
2017-11-17T07:15:03.499Z,12.37
2017-11-17T07:15:44.158Z,12.37
2017-11-17T07:16:25.646Z,12.37
2017-11-17T07:17:06.979Z,12.36
2017-11-17T07:25:08.832Z,12.23
2017-11-17T10:42:04.620Z,20.27
2017-11-17T10:44:47.057Z,20.26
2017-11-17T10:45:51.969Z,20.13
2017-11-17T10:46:51.694Z,20.05
2017-11-17T10:47:50.995Z,19.95
2017-11-17T10:48:51.108Z,19.78
2017-11-17T10:49:48.675Z,19.83
2017-11-17T10:50:50.242Z,19.83
2017-11-17T10:51:48.844Z,20.04
2017-11-17T10:52:47.608Z,20.1
2017-11-17T10:53:50.349Z,20.27
2017-11-17T10:55:51.500Z,20.27
2017-11-17T10:56:54.281Z,20.53
2017-11-17T10:57:52.632Z,20.63
2017-11-17T10:59:02.306Z,20.87
2017-11-17T11:01:03.955Z,21
2017-11-17T11:02:37.823Z,21.24
2017-11-17T11:04:52.307Z,21.36
2017-11-17T11:12:06.877Z,21.89
2017-11-17T11:17:36.121Z,22.21
2017-11-17T11:19:00.064Z,22.21
2017-11-17T11:19:41.773Z,22.23
2017-11-17T11:20:23.410Z,22.36
2017-11-17T11:21:17.850Z,22.42
2017-11-17T11:22:02.066Z,22.67
2017-11-17T11:24:01.718Z,22.84
2017-11-17T11:34:28.340Z,22.89
2017-11-17T11:36:00.110Z,22.61
2017-11-17T11:38:02.934Z,22.21
2017-11-17T11:38:45.177Z,22.09
2017-11-17T11:39:25.860Z,21.98
2017-11-17T11:40:08.167Z,21.99
2017-11-17T11:40:52.352Z,21.71
2017-11-17T11:41:32.666Z,21.59
2017-11-17T11:42:13.047Z,21.33
2017-11-17T11:42:54.406Z,21.45
2017-11-17T11:43:34.896Z,21.38
2017-11-17T11:45:29.223Z,21.45
2017-11-17T11:46:14.775Z,21.36
2017-11-17T11:46:55.177Z,21.42
2017-11-17T11:47:36.211Z,21.46
2017-11-17T11:48:16.468Z,21.55
2017-11-17T11:48:57.016Z,21.58
2017-11-17T11:49:37.476Z,21.59
2017-11-17T11:50:19.009Z,21.75
2017-11-17T11:50:59.126Z,21.74
2017-11-17T11:51:39.957Z,21.91
2017-11-17T11:52:21.298Z,21.96
2017-11-17T11:53:03.756Z,21.96
2017-11-17T11:53:44.324Z,21.91
2017-11-17T11:54:24.709Z,21.82
2017-11-17T11:55:05.236Z,21.85
2017-11-17T11:55:46.316Z,21.9
2017-11-17T11:56:26.867Z,21.96
2017-11-17T11:57:07.590Z,21.9
2017-11-17T11:57:48.879Z,21.94
2017-11-17T11:58:30.100Z,22.01
2017-11-17T11:59:12.818Z,21.99
2017-11-17T11:59:53.614Z,22.06
2017-11-17T12:00:34.070Z,22.11
2017-11-17T12:01:15.951Z,22.09
2017-11-17T12:01:57.859Z,22.11
2017-11-17T12:02:38.391Z,22.14
2017-11-17T12:03:19.890Z,22.12
2017-11-17T12:04:00.358Z,21.93
2017-11-17T12:04:40.799Z,21.86
2017-11-17T12:05:21.336Z,21.77
2017-11-17T12:07:37.932Z,21.48
2017-11-17T12:08:19.047Z,21.34
2017-11-17T12:09:00.129Z,21.26
2017-11-17T12:09:40.424Z,21.19
2017-11-17T12:10:20.959Z,21.06
2017-11-17T12:11:01.368Z,20.9
2017-11-17T12:11:41.965Z,20.87
2017-11-17T12:12:22.425Z,20.66
2017-11-17T12:13:02.804Z,20.63
2017-11-17T12:13:43.422Z,20.33
2017-11-17T12:14:24.277Z,20.13
2017-11-17T12:15:05.534Z,20.05
2017-11-17T12:15:45.786Z,19.8
2017-11-17T12:16:26.299Z,19.72
2017-11-17T12:17:06.765Z,19.58
2017-11-17T12:17:47.428Z,19.49
2017-11-17T12:18:27.993Z,19.27
2017-11-17T12:19:08.750Z,19.1
2017-11-17T12:19:49.490Z,19.02
2017-11-17T12:20:30.878Z,18.99
2017-11-17T12:21:11.243Z,18.78
2017-11-17T12:21:51.742Z,18.6
2017-11-17T12:22:32.269Z,18.5
2017-11-17T12:23:14.070Z,18.34
2017-11-17T12:23:54.954Z,18.41
2017-11-17T12:24:35.458Z,18.2
2017-11-17T12:25:16.276Z,17.95
2017-11-17T12:25:56.796Z,17.96
2017-11-17T12:26:37.261Z,17.81
2017-11-17T12:27:17.975Z,17.79
2017-11-17T12:27:58.717Z,17.51
2017-11-17T12:31:24.299Z,17.2
2017-11-17T12:33:16.808Z,17.14
2017-11-17T12:33:57.492Z,16.98
2017-11-17T12:34:37.845Z,16.91
2017-11-17T12:35:19.745Z,16.88
2017-11-17T12:36:00.174Z,16.82
2017-11-17T12:36:59.533Z,16.63
2017-11-17T12:37:41.012Z,16.7
2017-11-17T12:38:22.202Z,16.63
2017-11-17T12:39:06.160Z,16.63
2017-11-17T12:39:46.819Z,16.59
2017-11-17T12:40:29.270Z,16.52
2017-11-17T12:41:10.039Z,16.52
2017-11-17T12:41:57.393Z,16.47
2017-11-17T12:44:24.619Z,16.07
2017-11-17T12:45:28.469Z,16.03
2017-11-17T12:46:35.984Z,16.08
2017-11-17T12:47:42.844Z,16.08
2017-11-17T12:48:47.007Z,16.01
2017-11-17T12:50:51.741Z,16.1
2017-11-17T12:51:54.329Z,16.14
2017-11-17T12:53:51.884Z,16.23
2017-11-17T12:54:53.310Z,16.17
2017-11-17T12:57:31.743Z,15.98
2017-11-17T12:58:33.683Z,16.1
2017-11-17T12:59:40.247Z,16.01
2017-11-17T13:00:49.903Z,15.86
2017-11-17T13:01:53.590Z,15.78
2017-11-17T13:04:17.184Z,15.62
2017-11-17T13:05:58.819Z,15.64
2017-11-17T13:07:00.551Z,15.71
2017-11-17T13:08:00.265Z,15.58
2017-11-17T13:08:50.129Z,15.64
2017-11-17T13:09:30.526Z,15.67
2017-11-17T13:10:10.968Z,15.67
2017-11-17T13:10:51.801Z,15.6
2017-11-17T13:11:32.234Z,15.59
2017-11-17T13:12:12.767Z,15.6
2017-11-17T13:12:53.233Z,15.62
2017-11-17T13:13:33.821Z,15.6
2017-11-17T13:14:14.162Z,15.64
2017-11-17T13:14:55.168Z,15.66
2017-11-17T13:15:35.327Z,15.51
2017-11-17T13:16:15.728Z,15.64
2017-11-17T13:16:56.204Z,15.59
2017-11-17T13:17:36.782Z,15.62
2017-11-17T13:18:17.293Z,15.56
2017-11-17T13:18:57.874Z,15.48
2017-11-17T13:19:38.359Z,15.56
2017-11-17T13:20:18.992Z,15.51
2017-11-17T13:20:59.355Z,15.53
2017-11-17T13:21:39.782Z,15.46
2017-11-17T13:22:20.381Z,15.43
2017-11-17T13:23:02.367Z,15.41
2017-11-17T13:23:42.479Z,15.31
2017-11-17T13:24:24.063Z,15.3
2017-11-17T13:25:04.433Z,15.34
2017-11-17T13:25:45.118Z,15.22
2017-11-17T13:26:25.489Z,15.09
2017-11-17T13:27:05.967Z,15.04
2017-11-17T13:27:46.519Z,15.03
2017-11-17T13:28:27.664Z,14.91
2017-11-17T13:29:07.459Z,14.94
2017-11-17T13:29:47.823Z,14.91
2017-11-17T13:30:28.402Z,14.9
2017-11-17T13:31:09.174Z,14.87
2017-11-17T13:31:49.497Z,14.93
2017-11-17T13:32:30.126Z,14.91
2017-11-17T13:33:10.446Z,14.8
2017-11-17T13:33:50.901Z,14.86
2017-11-17T13:34:31.473Z,14.9
2017-11-17T13:35:11.823Z,14.9
2017-11-17T13:35:52.390Z,14.9
2017-11-17T13:36:49.071Z,14.79
2017-11-17T13:37:31.993Z,14.71
2017-11-17T13:38:15.917Z,14.72
2017-11-17T13:38:57.039Z,14.75
2017-11-17T13:39:37.376Z,14.67
2017-11-17T13:41:40.716Z,14.64
2017-11-17T13:42:40.790Z,14.54
2017-11-17T13:43:42.577Z,14.6
2017-11-17T13:44:44.456Z,14.59
2017-11-17T13:45:43.510Z,14.61
2017-11-17T13:46:37.438Z,14.67
2017-11-17T13:47:37.572Z,14.64
2017-11-17T13:48:34.131Z,14.74
2017-11-17T13:49:32.951Z,14.69
2017-11-17T13:50:30.456Z,14.64
2017-11-17T13:51:31.304Z,14.63
2017-11-17T13:52:31.160Z,14.74
2017-11-17T13:53:29.247Z,14.63
2017-11-17T13:54:30.280Z,14.74
2017-11-17T13:55:31.551Z,14.78
2017-11-17T13:56:32.642Z,14.6
2017-11-17T13:57:33.047Z,14.74
2017-11-17T13:58:29.535Z,14.79
2017-11-17T13:59:30.187Z,14.74
2017-11-17T14:00:34.363Z,14.78
2017-11-17T14:01:42.688Z,14.74
2017-11-17T14:02:46.310Z,14.64
2017-11-17T14:04:32.395Z,14.64
2017-11-17T14:05:31.800Z,14.71
2017-11-17T14:06:28.868Z,14.66
2017-11-17T14:07:25.245Z,14.67
2017-11-17T14:08:24.889Z,14.69
2017-11-17T14:09:21.356Z,14.64
2017-11-17T14:10:22.074Z,14.57
2017-11-17T14:11:26.698Z,14.56
2017-11-17T14:12:31.734Z,14.53
2017-11-17T14:13:36.933Z,14.41
2017-11-17T14:14:36.289Z,14.44
2017-11-17T14:15:31.256Z,14.35
2017-11-17T14:16:25.624Z,14.45
2017-11-17T14:17:27.516Z,14.35
2017-11-17T14:18:28.873Z,14.39
2017-11-17T14:19:23.287Z,14.45
2017-11-17T14:21:07.401Z,14.42
2017-11-17T14:21:48.212Z,14.45
2017-11-17T14:22:28.659Z,14.45
2017-11-17T14:23:09.133Z,14.42
2017-11-17T14:23:49.583Z,14.34
2017-11-17T14:24:29.998Z,14.38
2017-11-17T14:25:10.543Z,14.35
2017-11-17T14:25:50.916Z,14.31
2017-11-17T14:26:31.502Z,14.31
2017-11-17T14:27:11.818Z,14.3